createdAt,value
2023-02-09T07:18:37.692Z,612
2023-02-09T07:19:52.927Z,764
2023-02-09T07:21:09.864Z,788
2023-02-09T07:22:26.775Z,820
2023-02-09T07:23:43.685Z,852
2023-02-09T07:25:00.600Z,884
2023-02-09T07:26:17.524Z,924
2023-02-09T07:27:34.434Z,968
2023-02-09T07:28:51.333Z,1008
2023-02-09T07:30:08.250Z,1056
2023-02-09T07:31:25.163Z,1108
2023-02-09T07:32:42.074Z,1168
2023-02-09T07:33:58.994Z,1232
2023-02-09T07:35:15.000Z,1292
2023-02-09T07:36:32.811Z,1352
2023-02-09T07:37:49.724Z,1408
2023-02-09T07:39:06.629Z,1464
2023-02-09T07:40:23.541Z,1512
2023-02-09T07:41:40.455Z,1556
2023-02-09T07:42:57.357Z,1604
2023-02-09T07:44:14.267Z,1652
2023-02-09T07:45:31.157Z,1700
2023-02-09T07:46:48.068Z,1748
2023-02-09T07:48:04.972Z,1800
2023-02-09T07:49:21.869Z,1860
2023-02-09T07:50:38.762Z,1920
2023-02-09T07:51:55.728Z,1976
2023-02-09T07:53:12.627Z,2036
2023-02-09T07:54:29.528Z,2084
2023-02-09T07:55:46.413Z,2140
2023-02-09T07:57:03.309Z,2200
2023-02-09T07:58:20.207Z,2244
2023-02-09T07:59:37.087Z,2276
2023-02-09T08:00:53.990Z,2360
2023-02-09T08:02:10.880Z,2500
2023-02-09T08:03:27.769Z,2608
2023-02-09T08:04:44.634Z,2712
2023-02-09T08:06:01.516Z,2892
2023-02-09T08:07:18.416Z,3220
2023-02-09T08:08:35.395Z,3352
2023-02-09T08:09:52.283Z,3508
2023-02-09T08:11:09.158Z,3340
2023-02-09T08:12:26.036Z,3256
2023-02-09T08:13:42.902Z,3068
2023-02-09T08:14:59.787Z,3132
2023-02-09T08:16:16.653Z,3216
2023-02-09T08:17:33.508Z,3292
2023-02-09T08:18:50.374Z,3276
2023-02-09T08:20:07.232Z,3432
2023-02-09T08:21:24.099Z,3616
2023-02-09T08:22:40.964Z,3476
2023-02-09T08:23:57.820Z,3576
2023-02-09T08:26:37.847Z,3656
2023-02-09T08:27:53.176Z,3780
2023-02-09T08:29:10.019Z,3924
2023-02-09T08:30:26.862Z,4016
2023-02-09T08:31:43.703Z,4064
2023-02-09T08:33:00.553Z,4088
2023-02-09T08:34:17.403Z,4444
2023-02-09T08:35:34.254Z,4412
2023-02-09T08:36:51.082Z,4660
2023-02-09T08:38:07.914Z,4188
2023-02-09T08:39:24.756Z,4060
2023-02-09T08:40:41.571Z,4204
2023-02-09T08:41:58.414Z,4200
2023-02-09T08:43:15.220Z,4264
2023-02-09T08:44:32.053Z,4300
2023-02-09T08:45:48.871Z,4260
2023-02-09T08:47:05.698Z,4140
2023-02-09T08:48:22.518Z,4204
2023-02-09T08:49:39.326Z,4248
2023-02-09T08:50:56.133Z,4280
2023-02-09T08:52:12.961Z,4376
2023-02-09T08:53:29.773Z,4400
2023-02-09T08:54:46.564Z,4456
2023-02-09T08:56:03.377Z,4388
2023-02-09T08:57:20.177Z,4332
2023-02-09T08:58:36.990Z,4316
2023-02-09T08:59:53.837Z,4212
2023-02-09T09:01:10.639Z,4224
2023-02-09T09:02:27.442Z,4272
2023-02-09T09:03:44.242Z,4208
2023-02-09T09:05:01.031Z,4144
2023-02-09T09:06:17.831Z,4152
2023-02-09T09:07:34.633Z,3972
2023-02-09T09:08:51.425Z,4080
2023-02-09T09:10:08.210Z,4292
2023-02-09T09:11:24.999Z,4164
2023-02-09T09:12:41.784Z,4168
2023-02-09T09:13:58.584Z,4316
2023-02-09T09:15:15.369Z,4388
2023-02-09T09:16:32.258Z,4928
2023-02-09T09:17:49.028Z,4936
2023-02-09T09:19:05.825Z,5584
2023-02-09T09:20:22.614Z,5992
2023-02-09T09:21:39.389Z,5892
2023-02-09T09:22:56.187Z,5736
2023-02-09T09:24:12.960Z,5036
2023-02-09T09:25:29.751Z,5800
2023-02-09T09:26:46.526Z,6356
2023-02-09T09:28:03.311Z,6588
2023-02-09T09:29:20.084Z,7800
2023-02-09T09:30:36.848Z,7572
2023-02-09T09:31:53.614Z,7756
2023-02-09T09:34:32.000Z,8088
2023-02-09T09:35:48.037Z,6992
2023-02-09T09:37:04.781Z,6932
2023-02-09T09:38:21.538Z,4856
2023-02-09T09:39:38.293Z,4896
2023-02-09T09:40:55.067Z,4360
2023-02-09T09:42:11.809Z,4052
2023-02-09T09:43:28.563Z,4460
2023-02-09T09:44:45.321Z,5828
2023-02-09T09:46:02.081Z,5792
2023-02-09T09:47:18.839Z,6544
2023-02-09T09:48:35.578Z,6492
2023-02-09T09:49:52.342Z,11004
2023-02-09T09:51:09.092Z,9968
2023-02-09T09:52:25.838Z,8184
2023-02-09T09:53:42.599Z,6824
2023-02-09T09:54:59.351Z,6132
2023-02-09T09:56:16.089Z,7632
2023-02-09T09:57:32.834Z,6768
2023-02-09T09:58:49.578Z,4848
2023-02-09T10:00:06.318Z,4756
2023-02-09T10:01:23.062Z,5336
2023-02-09T10:02:39.800Z,6172
2023-02-09T10:03:56.536Z,6836
2023-02-09T10:05:13.270Z,6352
2023-02-09T10:06:30.011Z,5320
2023-02-09T10:07:46.932Z,5920
2023-02-09T10:09:03.669Z,7996
2023-02-09T10:10:20.401Z,10016
2023-02-09T10:11:37.118Z,10496
2023-02-09T10:12:53.856Z,9572
2023-02-09T10:14:10.584Z,9060
2023-02-09T10:15:27.317Z,8624
2023-02-09T10:16:44.038Z,8628
2023-02-09T10:18:00.787Z,11052
2023-02-09T10:19:17.496Z,14360
2023-02-09T10:20:34.229Z,14664
2023-02-09T10:21:50.952Z,13128
2023-02-09T10:23:07.667Z,10096
2023-02-09T10:26:16.798Z,9172
2023-02-09T10:27:46.083Z,7708
2023-02-09T10:29:01.948Z,7616
2023-02-09T10:30:18.665Z,7992
2023-02-09T10:31:35.372Z,9480
2023-02-09T10:32:52.066Z,10564
2023-02-09T10:34:08.784Z,10448
2023-02-09T10:35:25.480Z,8440
2023-02-09T10:36:42.187Z,8328
2023-02-09T10:37:58.882Z,8964
2023-02-09T10:39:15.596Z,10008
2023-02-09T10:40:32.296Z,8748
2023-02-09T10:41:49.008Z,10824
2023-02-09T10:43:05.697Z,11852
2023-02-09T10:44:22.404Z,11800
2023-02-09T10:45:39.093Z,11268
2023-02-09T10:46:55.796Z,10228
2023-02-09T10:48:12.478Z,10372
2023-02-09T10:49:29.174Z,8088
2023-02-09T10:50:45.867Z,7816
2023-02-09T10:52:02.566Z,8528
2023-02-09T10:54:35.947Z,11408
2023-02-09T10:55:52.651Z,10352
2023-02-09T10:57:09.338Z,10544
2023-02-09T10:58:26.042Z,9680
2023-02-09T10:59:42.795Z,8924
2023-02-09T11:00:59.480Z,11888
2023-02-09T11:02:16.156Z,17216
2023-02-09T11:03:32.843Z,16592
2023-02-09T11:04:49.515Z,16712
2023-02-09T11:06:06.204Z,16804
2023-02-09T11:07:22.889Z,14972
2023-02-09T11:08:39.562Z,11176
2023-02-09T11:09:56.260Z,10492
2023-02-09T11:11:12.936Z,11552
2023-02-09T11:12:29.611Z,9288
2023-02-09T11:13:46.281Z,9864
2023-02-09T11:15:02.971Z,10232
2023-02-09T11:16:19.755Z,10436
2023-02-09T11:17:36.426Z,10712
2023-02-09T11:18:53.120Z,9940
2023-02-09T11:20:09.798Z,9052
2023-02-09T11:21:26.476Z,9124
2023-02-09T11:22:43.145Z,8912
2023-02-09T11:23:59.840Z,7668
2023-02-09T11:25:16.517Z,7404
2023-02-09T11:26:33.207Z,7736
2023-02-09T11:27:49.901Z,8044
2023-02-09T11:29:06.574Z,9268
2023-02-09T11:30:23.263Z,10984
2023-02-09T11:31:39.957Z,10400
2023-02-09T11:32:56.828Z,11076
2023-02-09T11:34:13.524Z,10776
2023-02-09T11:35:30.227Z,8524
2023-02-09T11:36:46.918Z,5956
2023-02-09T11:38:03.612Z,5676
2023-02-09T11:39:20.317Z,5280
2023-02-09T11:40:37.009Z,5368
2023-02-09T11:41:53.722Z,5520
2023-02-09T11:43:10.414Z,5728
2023-02-09T11:44:27.129Z,5776
2023-02-09T11:45:43.827Z,5256
2023-02-09T11:47:00.532Z,5320
2023-02-09T11:48:17.231Z,5764
2023-02-09T11:51:26.348Z,5644
2023-02-09T11:52:55.693Z,4844
2023-02-09T11:54:11.610Z,4748
2023-02-09T11:55:28.339Z,4756
2023-02-09T11:56:45.045Z,4500
2023-02-09T11:58:01.765Z,4368
2023-02-09T11:59:18.484Z,4484
2023-02-09T12:00:35.196Z,4444
2023-02-09T12:01:51.909Z,4316
2023-02-09T12:03:08.648Z,4300
2023-02-09T12:04:25.367Z,4448
2023-02-09T12:05:42.073Z,4356
2023-02-09T12:06:58.810Z,4236
2023-02-09T12:08:15.529Z,4220
2023-02-09T12:09:32.272Z,4104
2023-02-09T12:10:49.000Z,3820
2023-02-09T12:12:05.724Z,3780
2023-02-09T12:13:22.455Z,3684
2023-02-09T12:14:39.183Z,3716
2023-02-09T12:15:55.923Z,3612
2023-02-09T12:17:12.655Z,3600
2023-02-09T12:18:29.391Z,3552
2023-02-09T12:19:46.111Z,3516
2023-02-09T12:21:02.840Z,3400
2023-02-09T12:22:19.575Z,3392
2023-02-09T12:23:36.322Z,3404
2023-02-09T12:24:53.159Z,3432
2023-02-09T12:26:09.874Z,3424
2023-02-09T12:27:26.611Z,3388
2023-02-09T12:28:43.355Z,3400
2023-02-09T12:30:00.095Z,3380
2023-02-09T12:31:16.820Z,3328
2023-02-09T12:32:33.570Z,3276
2023-02-09T12:33:50.313Z,3204
2023-02-09T12:35:07.043Z,3152
2023-02-09T12:36:23.795Z,3148
2023-02-09T12:37:40.535Z,3120
2023-02-09T12:38:57.289Z,3084
2023-02-09T12:40:14.045Z,3008
2023-02-09T12:41:58.777Z,2948
2023-02-09T12:43:15.878Z,912
2023-02-09T12:44:32.011Z,2816
2023-02-09T12:45:48.155Z,2760
2023-02-09T12:47:04.000Z,2724
2023-02-09T12:48:20.434Z,2680
2023-02-09T12:49:36.578Z,2664
2023-02-09T12:50:52.710Z,2696
2023-02-09T12:52:08.857Z,2736
2023-02-09T12:53:25.015Z,2796
2023-02-09T12:54:41.160Z,2792
2023-02-09T12:55:57.294Z,2772
2023-02-09T12:57:13.434Z,2752
2023-02-09T12:58:29.588Z,2728
2023-02-09T12:59:45.745Z,2680
2023-02-09T13:01:01.896Z,2628
2023-02-09T13:02:18.034Z,2568
2023-02-09T13:03:34.186Z,2488
2023-02-09T13:04:50.335Z,2448
2023-02-09T13:06:06.499Z,2404
2023-02-09T13:07:22.666Z,2368
2023-02-09T13:08:38.826Z,2332
2023-02-09T13:09:54.962Z,2316
2023-02-09T13:11:11.127Z,2260
2023-02-09T13:12:27.284Z,2252
2023-02-09T13:13:43.452Z,2248
2023-02-09T13:14:59.600Z,2236
2023-02-09T13:16:15.750Z,2244
2023-02-09T13:17:31.907Z,2268
2023-02-09T13:18:48.077Z,2276
2023-02-09T13:20:04.246Z,2320
2023-02-09T13:21:20.385Z,2340
2023-02-09T13:22:36.559Z,2384
2023-02-09T13:23:52.712Z,2408
2023-02-09T13:25:08.892Z,2416
2023-02-09T13:26:25.041Z,2416
2023-02-09T13:27:41.214Z,2452
2023-02-09T13:28:57.371Z,2456
2023-02-09T13:30:13.521Z,2468
2023-02-09T13:31:29.710Z,2460
2023-02-09T13:32:45.000Z,2436
2023-02-09T13:34:02.039Z,2444
2023-02-09T13:35:18.195Z,2404
2023-02-09T13:36:34.368Z,2360
2023-02-09T13:37:50.547Z,2308
2023-02-09T13:39:06.705Z,2268
2023-02-09T13:40:22.868Z,2216
2023-02-09T13:41:39.041Z,2168
2023-02-09T13:42:55.199Z,2136
2023-02-09T13:44:11.398Z,2100
2023-02-09T13:45:27.545Z,2084
2023-02-09T13:46:43.724Z,2068
2023-02-09T13:47:59.886Z,1996
2023-02-09T13:49:16.062Z,1980
2023-02-09T13:50:32.253Z,1972
2023-02-09T13:51:48.407Z,1972
2023-02-09T13:53:04.590Z,1984
2023-02-09T13:54:20.755Z,1980
2023-02-09T13:55:36.922Z,1976
